createdAt,value
2023-05-03T00:06:02.137Z,2.9
2023-05-03T00:12:21.967Z,2.9
2023-05-03T00:18:45.054Z,4.1
2023-05-03T00:25:04.995Z,4.1
2023-05-03T00:31:28.001Z,8.1
2023-05-03T00:37:48.032Z,8.1
2023-05-03T00:44:11.051Z,2.6
2023-05-03T00:50:31.008Z,2.6
2023-05-03T00:56:54.098Z,5.7
2023-05-03T01:03:13.952Z,5.7
2023-05-03T01:09:36.913Z,11.4
2023-05-03T01:15:57.062Z,11.4
2023-05-03T01:22:19.918Z,3.3
2023-05-03T01:28:39.971Z,3.3
2023-05-03T01:35:02.930Z,4.9
2023-05-03T01:41:22.898Z,4.9
2023-05-03T01:47:45.986Z,4.4
2023-05-03T01:54:05.914Z,4.4
2023-05-03T02:00:28.878Z,5.6
2023-05-03T02:06:48.990Z,5.6
2023-05-03T02:13:12.082Z,14.4
2023-05-03T02:19:31.931Z,14.4
2023-05-03T02:25:54.970Z,6.2
2023-05-03T02:32:14.933Z,6.2
2023-05-03T02:38:37.969Z,4.3
2023-05-03T02:44:57.995Z,4.3
2023-05-03T02:51:20.986Z,6
2023-05-03T02:57:42.305Z,6
2023-05-03T03:04:04.046Z,6.8
2023-05-03T03:10:24.167Z,6.8
2023-05-03T03:34:43.336Z,3.9
2023-05-03T03:41:02.940Z,3.9
2023-05-03T03:47:26.113Z,5.5
2023-05-03T03:53:45.911Z,5.5
2023-05-03T04:00:09.104Z,18.4
2023-05-03T04:06:28.970Z,18.4
2023-05-03T04:12:51.982Z,21.9
2023-05-03T04:19:12.078Z,21.9
2023-05-03T04:25:35.038Z,9.3
2023-05-03T04:31:55.084Z,9.3
2023-05-03T04:38:17.923Z,5.6
2023-05-03T04:44:37.940Z,5.6
2023-05-03T04:51:01.115Z,3.9
2023-05-03T04:57:21.168Z,3.9
2023-05-03T05:03:44.219Z,11.4
2023-05-03T05:10:04.139Z,11.4
2023-05-03T05:16:26.994Z,3.5
2023-05-03T05:22:46.964Z,3.5
2023-05-03T05:29:09.905Z,4
2023-05-03T05:35:29.940Z,4
2023-05-03T05:41:52.918Z,9.2
2023-05-03T05:48:13.022Z,9.2
2023-05-03T05:54:35.974Z,24.9
2023-05-03T06:00:55.922Z,24.9
2023-05-03T06:07:19.027Z,14.3
2023-05-03T06:13:38.938Z,14.3
2023-05-03T06:20:02.210Z,6.7
2023-05-03T06:26:21.922Z,6.7
2023-05-03T06:32:44.978Z,10.9
2023-05-03T06:39:04.987Z,10.9
2023-05-03T06:45:27.941Z,6.2
2023-05-03T06:51:48.092Z,6.2
2023-05-03T06:58:10.953Z,4.8
2023-05-03T07:04:31.061Z,4.8
2023-05-03T07:10:53.950Z,6.7
2023-05-03T07:17:13.914Z,6.7
2023-05-03T07:23:37.257Z,5.6
2023-05-03T07:29:57.006Z,5.6
2023-05-03T07:36:20.017Z,3.6
2023-05-03T07:42:40.186Z,3.6
2023-05-03T07:49:02.925Z,3.4
2023-05-03T07:55:22.992Z,3.4
2023-05-03T08:01:46.017Z,22.1
2023-05-03T08:08:05.972Z,22.1
2023-05-03T08:14:28.992Z,1.9
2023-05-03T08:20:49.054Z,1.9
2023-05-03T08:44:31.869Z,9.2
2023-05-03T08:50:54.913Z,9.2
2023-05-03T08:57:14.977Z,9.2
2023-05-03T09:03:38.213Z,3.7
2023-05-03T09:09:57.909Z,3.7
2023-05-03T09:16:21.036Z,1.9
2023-05-03T09:22:40.980Z,1.9
2023-05-03T09:29:04.051Z,2.2
2023-05-03T09:35:23.986Z,2.2
2023-05-03T09:41:46.978Z,5.7
2023-05-03T09:48:06.965Z,5.7
2023-05-03T09:54:29.937Z,3.8
2023-05-03T10:00:52.097Z,3.8
2023-05-03T10:07:12.919Z,1.5
2023-05-03T10:13:32.918Z,1.5
2023-05-03T10:19:56.094Z,2.3
2023-05-03T10:26:15.941Z,2.3
2023-05-03T10:32:38.954Z,1.9
2023-05-03T10:38:59.086Z,1.9
2023-05-03T10:45:21.890Z,6.2
2023-05-03T10:51:41.923Z,6.2
2023-05-03T10:58:04.914Z,0.5
2023-05-03T11:04:25.031Z,0.5
2023-05-03T11:10:48.088Z,2.5
2023-05-03T11:17:08.031Z,2.5
2023-05-03T11:23:30.966Z,4.2
2023-05-03T11:29:50.886Z,4.2
2023-05-03T11:36:13.986Z,4.4
2023-05-03T11:42:34.434Z,4.4
2023-05-03T11:48:57.346Z,9.6
2023-05-03T11:55:17.002Z,9.6
2023-05-03T12:01:40.031Z,1.1
2023-05-03T12:08:01.493Z,1.1
2023-05-03T12:14:23.128Z,1.8
2023-05-03T12:21:28.850Z,1.8
2023-05-03T12:27:08.405Z,1.7
2023-05-03T12:33:28.443Z,1.7
2023-05-03T12:39:56.218Z,2.1
2023-05-03T12:46:31.990Z,2.1
2023-05-03T12:52:37.670Z,17.9
2023-05-03T12:59:14.083Z,17.9
2023-05-03T13:05:22.582Z,2.5
2023-05-03T13:11:35.197Z,2.5
2023-05-03T13:17:57.936Z,0.7
2023-05-03T13:24:17.956Z,0.7
2023-05-03T13:30:41.069Z,3.9
2023-05-03T13:37:00.917Z,3.9
2023-05-03T13:43:24.041Z,1
2023-05-03T13:49:44.009Z,1
2023-05-03T14:12:14.857Z,2.8
2023-05-03T14:18:34.920Z,2.8
2023-05-03T14:24:57.944Z,1.5
2023-05-03T14:31:17.986Z,1.5
2023-05-03T14:37:40.920Z,1.2
2023-05-03T14:44:00.968Z,1.2
2023-05-03T14:50:23.917Z,0.2
2023-05-03T14:56:43.949Z,0.2
2023-05-03T15:03:07.006Z,1.2
2023-05-03T15:09:27.005Z,1.2
2023-05-03T15:15:49.932Z,1.3
2023-05-03T15:22:09.911Z,1.3
2023-05-03T15:28:32.982Z,0.3
2023-05-03T15:34:52.933Z,0.3
2023-05-03T15:41:16.059Z,0.7
2023-05-03T15:47:36.428Z,0.7
2023-05-03T15:53:59.172Z,0.3
2023-05-03T16:00:18.937Z,0.3
2023-05-03T16:06:42.001Z,0.2
2023-05-03T16:13:01.985Z,0.2
2023-05-03T16:19:25.001Z,1.3
2023-05-03T16:25:44.934Z,1.3
2023-05-03T16:32:07.974Z,8.9
2023-05-03T16:38:27.901Z,8.9
2023-05-03T16:44:50.979Z,0.4
2023-05-03T16:51:10.908Z,0.4
2023-05-03T16:57:33.913Z,0.7
2023-05-03T17:03:54.051Z,0.7
2023-05-03T17:10:16.909Z,0.3
2023-05-03T17:16:36.929Z,0.3
2023-05-03T17:22:59.937Z,1.1
2023-05-03T17:29:19.892Z,1.1
2023-05-03T17:35:42.911Z,2.2
2023-05-03T17:42:02.911Z,2.2
2023-05-03T17:48:26.009Z,0.4
2023-05-03T17:54:45.970Z,0.4
2023-05-03T18:01:09.344Z,0.8
2023-05-03T18:07:28.977Z,0.8
2023-05-03T18:13:51.898Z,1.6
2023-05-03T18:20:12.218Z,1.6
2023-05-03T18:26:34.896Z,0.7
2023-05-03T18:32:55.046Z,0.7
2023-05-03T18:39:18.131Z,0.4
2023-05-03T18:45:38.034Z,0.4
2023-05-03T18:52:00.938Z,0.4
2023-05-03T18:58:21.223Z,0.4
2023-05-03T19:04:44.068Z,1.2
2023-05-03T19:11:03.941Z,1.2
2023-05-03T19:17:27.213Z,3.7
2023-05-03T19:41:25.935Z,0.4
2023-05-03T19:47:45.968Z,0.4
2023-05-03T19:54:09.099Z,1.7
2023-05-03T20:00:28.961Z,1.7
2023-05-03T20:06:52.036Z,1.5
2023-05-03T20:13:12.029Z,1.5
2023-05-03T20:19:34.952Z,1.4
2023-05-03T20:25:55.058Z,1.4
2023-05-03T20:32:17.940Z,1.7
2023-05-03T20:38:38.156Z,1.7
2023-05-03T20:45:01.016Z,2.2
2023-05-03T20:51:20.913Z,2.2
2023-05-03T20:57:44.529Z,0.3
2023-05-03T21:04:03.943Z,0.3
2023-05-03T21:10:26.997Z,2.2
2023-05-03T21:16:47.018Z,2.2
2023-05-03T21:23:09.891Z,1.3
2023-05-03T21:29:29.933Z,1.3
2023-05-03T21:35:52.997Z,1.5
2023-05-03T21:42:12.950Z,1.5
2023-05-03T21:48:35.993Z,3.6
2023-05-03T21:54:56.035Z,3.6
2023-05-03T22:01:19.092Z,0.9
2023-05-03T22:24:15.936Z,6.2
2023-05-03T22:30:35.874Z,6.2
2023-05-03T22:36:58.936Z,6.2
2023-05-03T22:43:18.966Z,6.2
2023-05-03T22:49:42.054Z,0.6
2023-05-03T22:56:02.002Z,0.6
2023-05-03T23:02:25.197Z,5.7
2023-05-03T23:08:44.938Z,5.7
2023-05-03T23:15:07.968Z,0.9
2023-05-03T23:21:28.039Z,0.9
2023-05-03T23:27:51.038Z,1.2
2023-05-03T23:34:10.956Z,1.2
2023-05-03T23:40:34.138Z,2.7
2023-05-03T23:46:53.907Z,2.7
2023-05-03T23:53:16.933Z,1.9
2023-05-03T23:59:37.053Z,1.9
